Time;durP1;ratioP1;P1;durP2;ratioP2;P2;SDS_P1;SDS_P2;PMS_P1;PMS_P2;Temp;Humidity;BMP_temperature;BMP_pressure;BME280_temperature;BME280_humidity;BME280_pressure;Samples;Min_cycle;Max_cycle;Signal;HPM_P1;HPM_P2
2023/04/05 00:00:27;;;;;;;16.08;8.90;;;;;;;3.48;73.07;102400.69;4995250;28;20026;-62
2023/04/05 00:02:54;;;;;;;15.77;8.90;;;;;;;3.46;73.13;102415.16;4990574;28;20043;-62
2023/04/05 00:05:28;;;;;;;14.13;8.65;;;;;;;3.45;73.05;102415.91;4991867;28;20027;-62
2023/04/05 00:07:54;;;;;;;15.32;9.40;;;;;;;3.44;72.88;102416.69;4996163;28;20034;-62
2023/04/05 00:10:19;;;;;;;14.27;9.63;;;;;;;3.44;73.08;102415.78;4995589;28;20037;-62
2023/04/05 00:12:47;;;;;;;17.65;9.20;;;;;;;3.42;72.58;102422.53;4991255;28;21162;-62
2023/04/05 00:15:12;;;;;;;17.05;9.68;;;;;;;3.39;72.55;102417.09;4994566;28;20026;-62
2023/04/05 00:17:37;;;;;;;16.08;9.73;;;;;;;3.36;72.55;102417.78;4995153;28;20022;-62
2023/04/05 00:20:06;;;;;;;17.55;10.63;;;;;;;3.34;72.72;102418.44;4992800;28;20068;-62
2023/04/05 00:22:34;;;;;;;18.63;10.02;;;;;;;3.31;73.37;102412.25;4991937;28;20037;-62
2023/04/05 00:25:00;;;;;;;16.13;10.02;;;;;;;3.30;72.84;102414.69;4996635;28;20513;-62
2023/04/05 00:27:25;;;;;;;16.25;8.98;;;;;;;3.24;73.19;102411.66;4997767;28;20018;-62
2023/04/05 00:29:51;;;;;;;15.40;9.27;;;;;;;3.19;73.08;102411.31;4980049;28;20036;-62
2023/04/05 00:32:16;;;;;;;15.32;9.57;;;;;;;3.16;73.45;102403.34;4994474;28;20057;-62
2023/04/05 00:34:42;;;;;;;18.10;9.20;;;;;;;3.13;73.19;102398.84;4996486;28;20539;-62
2023/04/05 00:37:08;;;;;;;16.38;9.38;;;;;;;3.11;73.26;102399.47;4996408;28;20026;-62
2023/04/05 00:39:33;;;;;;;16.35;9.35;;;;;;;3.06;73.75;102403.38;4997516;28;20142;-62
2023/04/05 00:42:02;;;;;;;19.83;10.43;;;;;;;3.02;73.96;102396.19;4993954;28;20022;-62
2023/04/05 00:44:27;;;;;;;17.77;10.20;;;;;;;3.00;74.31;102398.66;4996932;28;20219;-62
2023/04/05 00:46:54;;;;;;;17.48;9.00;;;;;;;2.98;74.81;102400.19;4996998;28;20569;-62
2023/04/05 00:49:20;;;;;;;18.70;8.90;;;;;;;2.98;75.57;102399.31;4979515;28;20030;-62
2023/04/05 00:51:46;;;;;;;18.35;9.13;;;;;;;2.91;75.70;102391.09;4992994;28;20028;-62
2023/04/05 00:54:12;;;;;;;15.75;9.38;;;;;;;2.86;76.19;102387.25;4995369;28;20517;-63
2023/04/05 00:56:38;;;;;;;17.05;8.82;;;;;;;2.80;76.57;102383.31;4995865;28;20117;-62
2023/04/05 00:59:04;;;;;;;14.25;8.27;;;;;;;2.71;76.21;102391.16;4992034;28;20508;-62
2023/04/05 01:01:36;;;;;;;15.45;8.82;;;;;;;2.66;76.56;102387.31;4991208;28;20057;-62
2023/04/05 01:04:06;;;;;;;17.73;9.00;;;;;;;2.61;75.90;102390.41;4977000;28;20030;-62
2023/04/05 01:06:39;;;;;;;16.60;9.60;;;;;;;2.57;75.77;102398.66;4994834;28;20022;-62
2023/04/05 01:09:28;;;;;;;17.38;9.60;;;;;;;2.56;75.96;102396.88;4995728;28;20030;-62
2023/04/05 01:11:55;;;;;;;16.13;8.77;;;;;;;2.58;75.41;102387.59;4991494;28;20063;-62
2023/04/05 01:14:21;;;;;;;14.98;9.00;;;;;;;2.56;75.63;102389.16;4993421;28;20025;-63
2023/04/05 01:16:48;;;;;;;15.68;8.98;;;;;;;2.52;75.57;102392.25;4997002;28;20493;-62
2023/04/05 01:19:14;;;;;;;17.13;8.70;;;;;;;2.48;75.67;102387.63;4993035;28;20025;-62
2023/04/05 01:22:25;;;;;;;17.23;9.63;;;;;;;2.46;75.38;102389.16;4991412;28;20034;-62
2023/04/05 01:25:09;;;;;;;15.32;9.25;;;;;;;2.42;75.64;102380.31;4985486;28;20493;-62
2023/04/05 01:27:46;;;;;;;15.77;8.63;;;;;;;2.40;75.75;102384.47;4991641;28;20042;-70
2023/04/05 01:30:25;;;;;;;17.85;9.60;;;;;;;2.38;75.88;102380.84;4993060;28;20494;-69
2023/04/05 01:33:39;;;;;;;15.00;8.50;;;;;;;2.34;76.01;102378.78;4992676;28;20030;-69
2023/04/05 01:36:31;;;;;;;15.65;8.80;;;;;;;2.25;76.85;102376.34;4952981;28;20030;-70
2023/04/05 01:38:59;;;;;;;14.02;8.18;;;;;;;2.18;76.92;102373.16;4980620;28;20461;-70
2023/04/05 01:41:26;;;;;;;17.40;9.23;;;;;;;2.12;76.99;102365.84;4995575;28;20026;-69
2023/04/05 01:43:51;;;;;;;16.67;9.25;;;;;;;2.07;76.32;102364.56;4994492;28;20674;-70
2023/04/05 01:46:16;;;;;;;16.65;9.20;;;;;;;2.05;76.45;102367.00;4996006;28;20030;-69
2023/04/05 01:48:41;;;;;;;13.98;8.38;;;;;;;2.04;77.62;102367.78;4994640;28;20034;-70
2023/04/05 01:51:07;;;;;;;14.55;8.73;;;;;;;2.02;77.11;102360.72;4995345;28;20029;-69
2023/04/05 01:53:32;;;;;;;16.60;9.23;;;;;;;2.00;77.64;102364.81;4994349;28;20029;-69
2023/04/05 01:56:01;;;;;;;13.90;8.73;;;;;;;1.97;77.17;102359.44;4995098;28;20065;-69
2023/04/05 01:58:26;;;;;;;18.35;9.57;;;;;;;1.96;76.97;102357.66;4994958;28;20493;-70
2023/04/05 02:00:56;;;;;;;14.77;9.35;;;;;;;1.94;77.74;102360.09;4994049;28;20033;-69
2023/04/05 02:03:22;;;;;;;18.75;9.70;;;;;;;1.90;77.25;102361.50;4992004;28;20041;-70
2023/04/05 02:05:47;;;;;;;18.27;9.48;;;;;;;1.86;77.56;102359.44;4992150;28;20056;-69
2023/04/05 02:08:13;;;;;;;17.75;9.70;;;;;;;1.84;77.16;102353.28;4974672;28;20564;-69
2023/04/05 02:10:39;;;;;;;18.10;10.30;;;;;;;1.81;76.70;102353.03;4992386;28;20120;-69
2023/04/05 02:13:05;;;;;;;16.65;9.75;;;;;;;1.79;77.18;102354.56;4992420;28;20121;-70
2023/04/05 02:15:32;;;;;;;16.45;9.77;;;;;;;1.75;77.60;102352.50;4991590;28;20945;-70
2023/04/05 02:18:00;;;;;;;16.45;9.15;;;;;;;1.71;78.20;102347.91;4993531;28;20038;-69
2023/04/05 02:20:27;;;;;;;17.08;9.63;;;;;;;1.60;78.61;102356.38;4971519;28;20109;-69
2023/04/05 02:22:53;;;;;;;17.05;9.55;;;;;;;1.56;78.80;102353.56;4993653;28;20517;-69
2023/04/05 02:25:18;;;;;;;16.58;9.70;;;;;;;1.56;78.37;102350.06;4993443;28;20080;-69
2023/04/05 02:27:44;;;;;;;16.77;9.48;;;;;;;1.53;78.72;102349.81;4991701;28;21688;-69
2023/04/05 02:30:12;;;;;;;16.83;9.68;;;;;;;1.52;78.64;102345.44;4994535;28;20501;-69
2023/04/05 02:32:38;;;;;;;18.05;10.02;;;;;;;1.51;78.14;102344.53;4990178;28;20030;-69
2023/04/05 02:35:03;;;;;;;14.95;9.20;;;;;;;1.50;78.10;102344.41;4991970;28;20508;-69
2023/04/05 02:37:29;;;;;;;16.98;9.15;;;;;;;1.48;77.83;102343.41;4995674;28;20474;-69
2023/04/05 02:39:54;;;;;;;18.35;10.90;;;;;;;1.48;77.83;102344.28;4996246;28;20037;-69
2023/04/05 02:42:19;;;;;;;18.63;10.55;;;;;;;1.46;77.81;102347.50;4994916;28;20021;-69
2023/04/05 02:44:45;;;;;;;17.88;9.50;;;;;;;1.43;78.22;102342.09;4997445;28;20082;-69
2023/04/05 02:47:10;;;;;;;18.40;9.90;;;;;;;1.39;78.36;102333.22;4997618;28;20936;-69
2023/04/05 02:49:35;;;;;;;17.25;9.95;;;;;;;1.35;78.37;102339.78;4993284;28;20405;-69
2023/04/05 02:52:01;;;;;;;17.33;9.68;;;;;;;1.32;79.11;102343.78;4998492;28;20030;-69
2023/04/05 02:54:26;;;;;;;17.27;9.57;;;;;;;1.29;78.73;102336.69;4998978;28;20026;-69
2023/04/05 02:56:53;;;;;;;16.48;9.05;;;;;;;1.25;79.25;102342.34;4999246;28;20135;-69
2023/04/05 02:59:19;;;;;;;16.60;9.25;;;;;;;1.20;78.72;102331.69;4997207;28;20029;-69
2023/04/05 03:01:45;;;;;;;16.85;9.82;;;;;;;1.16;78.35;102342.44;4998632;28;20041;-69
2023/04/05 03:04:11;;;;;;;17.50;10.43;;;;;;;1.12;79.24;102330.09;4998861;28;20396;-69
2023/04/05 03:06:37;;;;;;;20.15;10.45;;;;;;;1.11;78.18;102329.97;4999286;28;20037;-69
2023/04/05 03:09:03;;;;;;;20.52;11.07;;;;;;;1.10;78.32;102329.09;4996961;28;20465;-70
2023/04/05 03:11:28;;;;;;;19.92;10.02;;;;;;;1.11;78.32;102322.28;4998545;28;20405;-69
2023/04/05 03:13:54;;;;;;;18.10;10.55;;;;;;;1.08;78.22;102319.47;4998516;28;20029;-69
2023/04/05 03:16:19;;;;;;;17.05;10.25;;;;;;;1.04;78.01;102320.84;4999298;28;20061;-69
2023/04/05 03:18:44;;;;;;;21.90;11.45;;;;;;;1.01;77.92;102323.16;4996806;28;20105;-69
2023/04/05 03:21:10;;;;;;;19.08;10.30;;;;;;;0.98;79.31;102315.19;4991897;28;20124;-69
2023/04/05 03:23:35;;;;;;;19.27;10.70;;;;;;;0.96;77.96;102312.50;4979478;28;20025;-69
2023/04/05 03:26:02;;;;;;;17.80;10.32;;;;;;;0.92;78.56;102310.44;4998030;28;20117;-69
2023/04/05 03:28:28;;;;;;;17.48;10.85;;;;;;;0.91;78.72;102310.28;4995779;28;20068;-69
2023/04/05 03:30:54;;;;;;;18.15;10.70;;;;;;;0.89;78.84;102314.41;4994230;28;20022;-69
2023/04/05 03:33:19;;;;;;;14.93;9.57;;;;;;;0.88;78.85;102304.91;4995662;28;20397;-69
2023/04/05 03:35:45;;;;;;;17.92;10.48;;;;;;;0.81;78.97;102306.94;4992830;28;20486;-69
2023/04/05 03:38:11;;;;;;;18.02;9.70;;;;;;;0.76;79.63;102308.19;4997306;28;20102;-69
2023/04/05 03:40:37;;;;;;;14.45;9.38;;;;;;;0.72;79.95;102310.38;4993435;28;20034;-69
2023/04/05 03:43:02;;;;;;;14.05;9.10;;;;;;;0.68;80.44;102314.31;4995728;28;20034;-69
2023/04/05 03:45:30;;;;;;;14.98;8.95;;;;;;;0.65;80.20;102309.84;4996015;28;20042;-68
2023/04/05 03:47:57;;;;;;;17.30;9.02;;;;;;;0.63;80.35;102305.34;4993309;28;20038;-69
2023/04/05 03:50:22;;;;;;;16.52;9.55;;;;;;;0.60;80.57;102305.97;4993564;28;20418;-69
2023/04/05 03:52:48;;;;;;;18.90;10.27;;;;;;;0.60;81.28;102305.97;4994688;28;20156;-69
2023/04/05 03:55:15;;;;;;;17.92;9.60;;;;;;;0.60;81.19;102298.28;4992840;28;20025;-69
2023/04/05 03:57:41;;;;;;;18.15;10.10;;;;;;;0.61;80.57;102307.78;4978553;28;20100;-62
2023/04/05 04:00:13;;;;;;;18.27;10.05;;;;;;;0.62;80.37;102294.19;4992859;28;20502;-62
2023/04/05 04:02:57;;;;;;;17.10;9.77;;;;;;;0.59;80.09;102291.34;4995320;28;20113;-62
2023/04/05 04:05:22;;;;;;;17.40;10.30;;;;;;;0.57;79.64;102294.56;4994183;28;20030;-62
2023/04/05 04:07:48;;;;;;;18.30;10.70;;;;;;;0.54;79.21;102296.81;4991911;28;20076;-61
2023/04/05 04:10:16;;;;;;;18.98;10.05;;;;;;;0.52;79.00;102289.00;4991417;28;20026;-62
2023/04/05 04:12:42;;;;;;;20.73;10.30;;;;;;;0.52;79.05;102289.00;4993966;28;20042;-61
2023/04/05 04:15:08;;;;;;;18.30;10.63;;;;;;;0.51;78.98;102294.91;4995176;28;20113;-62
2023/04/05 04:17:35;;;;;;;16.42;10.07;;;;;;;0.48;79.35;102287.84;4994539;28;20092;-62
2023/04/05 04:20:06;;;;;;;20.35;11.02;;;;;;;0.45;79.03;102290.16;4988403;28;20046;-62
2023/04/05 04:22:32;;;;;;;19.33;10.93;;;;;;;0.43;79.61;102291.66;4991777;28;20030;-61
2023/04/05 04:25:02;;;;;;;18.42;10.02;;;;;;;0.42;80.52;102294.09;4995694;28;20042;-61
2023/04/05 04:27:29;;;;;;;17.40;9.70;;;;;;;0.43;80.78;102289.09;4994825;28;20026;-62
2023/04/05 04:30:00;;;;;;;21.35;10.68;;;;;;;0.42;80.68;102287.31;4972396;28;20253;-62
2023/04/05 04:32:46;;;;;;;17.52;10.43;;;;;;;0.43;79.79;102293.34;4994959;28;20028;-62
2023/04/05 04:35:17;;;;;;;18.63;11.00;;;;;;;0.44;79.48;102287.44;4995649;28;20030;-62
2023/04/05 04:37:57;;;;;;;19.05;10.85;;;;;;;0.44;80.23;102296.03;4996071;28;20026;-62
2023/04/05 04:40:52;;;;;;;19.73;10.65;;;;;;;0.44;79.62;102292.56;4992364;28;20072;-62
2023/04/05 04:43:18;;;;;;;22.50;10.75;;;;;;;0.39;79.25;102294.75;4995396;28;20236;-62
2023/04/05 04:45:48;;;;;;;18.52;10.23;;;;;;;0.35;79.97;102287.53;4994511;28;20695;-62
2023/04/05 04:48:15;;;;;;;19.70;9.82;;;;;;;0.30;80.27;102289.69;4995012;28;20029;-62
2023/04/05 04:50:44;;;;;;;18.98;9.88;;;;;;;0.24;80.87;102288.25;4993086;28;20034;-62
2023/04/05 04:53:11;;;;;;;17.40;10.32;;;;;;;0.21;80.82;102287.97;4996960;28;20048;-62
2023/04/05 04:55:41;;;;;;;16.30;10.05;;;;;;;0.22;80.32;102289.75;4996747;28;20073;-62
2023/04/05 04:58:09;;;;;;;20.63;10.05;;;;;;;0.22;81.35;102292.31;4995136;28;20026;-62
2023/04/05 05:00:35;;;;;;;19.67;10.18;;;;;;;0.20;81.41;102293.88;4995151;28;20038;-62
2023/04/05 05:03:01;;;;;;;17.48;10.20;;;;;;;0.19;80.80;102287.84;4997109;28;20125;-62
2023/04/05 05:05:26;;;;;;;18.25;9.50;;;;;;;0.19;81.23;102292.06;4996382;28;20509;-62
2023/04/05 05:07:52;;;;;;;16.75;9.65;;;;;;;0.18;81.41;102293.72;4994516;28;20033;-62
2023/04/05 05:10:18;;;;;;;19.83;10.23;;;;;;;0.16;82.01;102287.59;4995488;28;20065;-62
2023/04/05 05:12:44;;;;;;;17.38;9.55;;;;;;;0.14;82.19;102287.41;4996657;28;20088;-61
2023/04/05 05:15:11;;;;;;;17.88;10.68;;;;;;;0.12;81.12;102288.97;4996594;28;20037;-62
2023/04/05 05:17:36;;;;;;;17.92;9.95;;;;;;;0.14;81.12;102283.97;4996812;28;20520;-68
2023/04/05 05:20:08;;;;;;;18.20;10.35;;;;;;;0.15;81.45;102284.09;4991035;28;20140;-68
2023/04/05 05:22:34;;;;;;;19.83;10.82;;;;;;;0.15;80.92;102286.66;4990768;28;20038;-68
2023/04/05 05:24:59;;;;;;;19.77;10.93;;;;;;;0.14;80.93;102279.72;4995484;28;20080;-68
2023/04/05 05:27:24;;;;;;;20.27;11.13;;;;;;;0.12;81.25;102285.50;4993673;28;20030;-68
2023/04/05 05:29:50;;;;;;;17.73;10.52;;;;;;;0.12;80.90;102281.28;4973816;28;20030;-68
2023/04/05 05:32:15;;;;;;;21.38;10.57;;;;;;;0.15;81.75;102280.66;4995726;28;20041;-68
2023/04/05 05:34:43;;;;;;;18.88;10.77;;;;;;;0.17;81.75;102279.09;4990212;28;20037;-68
2023/04/05 05:37:09;;;;;;;20.38;11.10;;;;;;;0.17;81.43;102274.91;4994568;28;20030;-68
2023/04/05 05:39:35;;;;;;;19.83;10.68;;;;;;;0.19;81.63;102284.38;4987247;28;20053;-68
2023/04/05 05:42:02;;;;;;;20.20;11.07;;;;;;;0.19;82.33;102279.25;4992796;28;20156;-68
2023/04/05 05:44:28;;;;;;;19.77;11.57;;;;;;;0.17;81.91;102277.47;4976595;28;20030;-68
2023/04/05 05:46:53;;;;;;;18.05;10.85;;;;;;;0.16;81.89;102280.78;4995409;28;20061;-62
2023/04/05 05:49:18;;;;;;;17.58;10.80;;;;;;;0.17;82.22;102277.47;4994003;28;20493;-62
2023/04/05 05:51:44;;;;;;;20.65;11.45;;;;;;;0.21;81.78;102280.28;4991090;28;20057;-62
2023/04/05 05:54:09;;;;;;;18.50;10.82;;;;;;;0.20;82.31;102281.03;4990583;28;20415;-61
2023/04/05 05:56:35;;;;;;;19.88;10.95;;;;;;;0.19;82.01;102284.38;4994026;28;20045;-61
2023/04/05 05:59:00;;;;;;;18.50;10.35;;;;;;;0.21;82.83;102290.56;4990436;28;20117;-61
2023/04/05 06:01:26;;;;;;;20.20;10.95;;;;;;;0.22;84.35;102289.75;4994372;28;20287;-62
2023/04/05 06:03:52;;;;;;;20.25;11.07;;;;;;;0.25;84.05;102287.50;4988598;28;20123;-62
2023/04/05 06:06:17;;;;;;;20.00;11.45;;;;;;;0.28;84.02;102290.31;4991093;28;20463;-62
2023/04/05 06:08:43;;;;;;;20.40;11.15;;;;;;;0.30;84.41;102286.22;5088527;23;20054;-68
2023/04/05 06:11:16;;;;;;;18.95;11.60;;;;;;;0.34;84.51;102290.84;4994077;28;20128;-68
2023/04/05 06:13:41;;;;;;;21.25;11.98;;;;;;;0.36;85.35;102286.75;4990255;28;20413;-69
2023/04/05 06:16:06;;;;;;;19.73;12.32;;;;;;;0.41;85.47;102290.63;4993591;28;20019;-68
2023/04/05 06:18:32;;;;;;;19.70;11.07;;;;;;;0.46;85.25;102293.59;4993169;28;20179;-68
2023/04/05 06:20:57;;;;;;;24.05;11.98;;;;;;;0.52;85.27;102295.06;4993773;28;20489;-69
2023/04/05 06:23:22;;;;;;;21.52;11.57;;;;;;;0.59;85.08;102303.28;4994921;28;20038;-68
2023/04/05 06:25:48;;;;;;;21.35;11.60;;;;;;;0.65;84.95;102299.59;4992126;28;20037;-69
2023/04/05 06:28:13;;;;;;;19.08;11.75;;;;;;;0.74;85.43;102296.91;4992901;28;20041;-69
2023/04/05 06:30:38;;;;;;;20.38;12.18;;;;;;;0.83;85.16;102291.69;4994044;28;20029;-69
2023/04/05 06:33:04;;;;;;;19.10;12.48;;;;;;;0.93;86.11;102285.66;4994093;28;20022;-69
2023/04/05 06:35:29;;;;;;;22.98;13.23;;;;;;;1.01;86.94;102292.34;4991941;28;20037;-69
2023/04/05 06:37:54;;;;;;;22.00;13.57;;;;;;;1.07;87.24;102295.44;4992860;28;20436;-62
2023/04/05 06:40:20;;;;;;;22.95;13.38;;;;;;;1.17;87.55;102297.13;4995062;28;20026;-62
2023/04/05 06:42:45;;;;;;;27.27;14.15;;;;;;;1.29;87.96;102290.47;4993361;28;20038;-61
2023/04/05 06:45:11;;;;;;;19.98;12.85;;;;;;;1.43;87.47;102296.75;4987120;28;20045;-61
2023/04/05 06:47:38;;;;;;;24.52;13.57;;;;;;;1.55;86.39;102295.22;4991977;28;20062;-62
2023/04/05 06:50:05;;;;;;;21.50;13.32;;;;;;;1.69;85.90;102295.47;4995875;28;20200;-62
2023/04/05 06:52:31;;;;;;;27.65;14.32;;;;;;;1.80;86.22;102297.25;4993292;28;20137;-62
2023/04/05 06:54:56;;;;;;;23.52;14.68;;;;;;;1.94;84.27;102294.91;4993557;28;20141;-63
2023/04/05 06:57:21;;;;;;;23.38;15.25;;;;;;;2.06;84.51;102296.81;4994678;28;20037;-62
2023/04/05 06:59:47;;;;;;;23.17;15.18;;;;;;;2.17;84.27;102292.56;4995215;28;20057;-62
2023/04/05 07:02:12;;;;;;;25.27;16.23;;;;;;;2.34;82.75;102305.88;4994580;28;20130;-62
2023/04/05 07:04:38;;;;;;;25.05;16.33;;;;;;;2.49;81.51;102307.13;4991381;28;20089;-62
2023/04/05 07:07:05;;;;;;;26.63;16.02;;;;;;;2.67;81.21;102304.22;4992610;28;20029;-62
2023/04/05 07:09:34;;;;;;;24.63;16.20;;;;;;;2.84;80.83;102310.66;4983671;28;20105;-62
2023/04/05 07:12:01;;;;;;;24.85;15.43;;;;;;;2.94;79.50;102308.03;4986391;28;20049;-63
2023/04/05 07:14:31;;;;;;;24.58;15.85;;;;;;;3.07;80.22;102309.88;4985760;28;20038;-63
2023/04/05 07:16:57;;;;;;;22.73;15.15;;;;;;;3.21;80.11;102296.41;4984196;28;20037;-64
2023/04/05 07:19:22;;;;;;;22.70;15.27;;;;;;;3.37;80.05;102295.00;5069407;23;20009;-67
2023/04/05 07:21:51;;;;;;;23.55;15.18;;;;;;;3.50;78.86;102292.56;5224158;23;20058;-96
2023/04/05 07:24:16;;;;;;;21.90;14.07;;;;;;;3.64;77.81;102291.94;4984367;28;20698;-96
2023/04/05 07:26:42;;;;;;;23.08;13.65;;;;;;;3.76;75.44;102299.69;4967475;28;20392;-96
2023/04/05 07:29:10;;;;;;;20.95;14.15;;;;;;;3.87;75.80;102292.75;4970475;28;20118;-96
2023/04/05 07:31:38;;;;;;;21.58;13.95;;;;;;;4.04;74.35;102299.16;4969168;28;20030;-96
2023/04/05 07:34:03;;;;;;;21.60;13.77;;;;;;;4.15;73.45;102292.22;4971992;28;20058;-96
2023/04/05 07:36:29;;;;;;;20.92;13.40;;;;;;;4.22;73.84;102291.88;4969678;28;20416;-96
2023/04/05 07:38:58;;;;;;;22.00;13.70;;;;;;;4.35;73.38;102291.97;4973477;28;20027;-96
2023/04/05 07:41:34;;;;;;;23.90;13.68;;;;;;;4.44;72.21;102291.72;4995241;28;20022;-96
2023/04/05 07:44:00;;;;;;;23.38;13.57;;;;;;;4.49;71.04;102289.47;4975526;28;20034;-96
2023/04/05 07:46:28;;;;;;;21.65;13.48;;;;;;;4.59;71.10;102286.78;4979117;28;20127;-96
2023/04/05 07:49:03;;;;;;;22.90;13.60;;;;;;;4.69;71.48;102289.22;4985598;28;20022;-96
2023/04/05 07:51:28;;;;;;;22.98;13.35;;;;;;;4.79;70.89;102292.44;4981747;28;20037;-96
2023/04/05 07:53:53;;;;;;;21.77;13.50;;;;;;;4.95;71.42;102287.56;4983501;28;20027;-96
2023/04/05 07:56:23;;;;;;;19.48;13.77;;;;;;;5.03;71.22;102286.41;4988255;28;20027;-96
2023/04/05 07:58:50;;;;;;;20.77;13.13;;;;;;;5.20;70.97;102282.41;4986917;28;20026;-96
2023/04/05 08:01:16;;;;;;;20.20;12.70;;;;;;;5.39;70.56;102278.50;4988013;28;20043;-96
2023/04/05 08:03:42;;;;;;;21.90;12.55;;;;;;;5.52;67.94;102277.66;4988205;28;20061;-96
2023/04/05 08:06:17;;;;;;;21.77;12.65;;;;;;;5.69;67.84;102281.34;4986853;28;20061;-96
2023/04/05 08:08:46;;;;;;;20.33;12.85;;;;;;;5.84;65.94;102278.91;4991894;28;20030;-96
2023/04/05 08:11:12;;;;;;;17.98;11.95;;;;;;;5.89;64.33;102286.16;4991360;28;20018;-96
2023/04/05 08:13:40;;;;;;;17.40;10.90;;;;;;;5.98;62.90;102280.75;4993724;28;20037;-96
2023/04/05 08:16:07;;;;;;;17.02;10.93;;;;;;;6.07;62.13;102285.63;4996105;28;20018;-96
2023/04/05 08:18:37;;;;;;;18.13;11.15;;;;;;;6.17;62.62;102285.41;4992869;28;20531;-96
2023/04/05 08:21:03;;;;;;;16.45;11.45;;;;;;;6.33;64.15;102283.78;4992432;28;20026;-96
2023/04/05 08:23:35;;;;;;;19.25;12.07;;;;;;;6.51;63.86;102284.09;4995024;28;20101;-96
2023/04/05 08:26:06;;;;;;;20.42;12.55;;;;;;;6.77;66.77;102283.13;5013512;28;20022;-96
2023/04/05 08:28:33;;;;;;;20.17;11.80;;;;;;;6.96;64.06;102278.28;5015358;28;20023;-96
2023/04/05 08:31:00;;;;;;;19.90;12.02;;;;;;;7.17;64.17;102269.13;4991779;28;20037;-96
2023/04/05 08:33:29;;;;;;;17.73;11.43;;;;;;;7.38;60.94;102283.38;4993132;28;20054;-96
2023/04/05 08:36:10;;;;;;;19.42;12.05;;;;;;;7.43;62.06;102276.78;4991599;28;20031;-96
2023/04/05 08:38:38;;;;;;;17.52;11.77;;;;;;;7.62;60.69;102277.88;4991030;28;20125;-96
2023/04/05 08:41:47;;;;;;;19.10;11.75;;;;;;;7.86;62.11;102269.72;4990858;28;20035;-96
2023/04/05 08:44:14;;;;;;;19.13;11.85;;;;;;;7.92;57.91;102265.78;4958950;28;20038;-96
2023/04/05 08:46:50;;;;;;;16.80;11.98;;;;;;;8.00;59.82;102268.81;5014041;28;20069;-96
2023/04/05 08:49:28;;;;;;;20.48;12.13;;;;;;;8.25;62.65;102271.09;4973775;28;20038;-96
2023/04/05 08:54:23;;;;;;;17.38;11.82;;;;;;;8.73;56.18;102265.94;5096875;22;20054;-67
2023/04/05 08:56:51;;;;;;;17.90;12.50;;;;;;;8.87;57.80;102264.09;4997274;28;20027;-68
2023/04/05 08:59:18;;;;;;;18.30;11.80;;;;;;;8.99;57.05;102269.03;4996719;28;20034;-67
2023/04/05 09:01:45;;;;;;;20.13;12.38;;;;;;;9.09;56.20;102260.03;4994485;28;20042;-68
2023/04/05 09:04:19;;;;;;;21.20;13.45;;;;;;;9.17;56.61;102253.53;4978463;28;20509;-68
2023/04/05 09:06:48;;;;;;;17.65;11.93;;;;;;;9.32;54.16;102264.72;4996884;28;20030;-68
2023/04/05 09:09:14;;;;;;;18.67;11.87;;;;;;;9.39;52.06;102260.72;4993798;28;20160;-68
2023/04/05 09:11:39;;;;;;;19.13;12.27;;;;;;;9.43;53.37;102257.47;4994261;28;20169;-67
2023/04/05 09:14:06;;;;;;;14.07;10.52;;;;;;;9.45;50.54;102253.22;4996689;28;20029;-68
2023/04/05 09:16:40;;;;;;;19.85;11.75;;;;;;;9.41;50.24;102253.88;4996340;28;20108;-68
2023/04/05 09:19:07;;;;;;;17.35;10.43;;;;;;;9.61;52.81;102254.91;4994348;28;20030;-68
2023/04/05 09:22:09;;;;;;;16.73;10.90;;;;;;;9.89;54.29;102257.19;4995768;28;20029;-68
2023/04/05 09:24:35;;;;;;;16.05;9.25;;;;;;;9.95;45.47;102253.97;4898383;29;20527;-68
2023/04/05 09:27:06;;;;;;;17.45;9.90;;;;;;;9.92;49.86;102252.13;4975153;28;20052;-68
2023/04/05 09:29:32;;;;;;;15.15;9.63;;;;;;;10.05;47.23;102255.28;4996641;28;20034;-68
2023/04/05 09:31:59;;;;;;;21.15;10.75;;;;;;;10.09;47.96;102252.03;4994969;28;20668;-68
2023/04/05 09:34:25;;;;;;;16.40;10.70;;;;;;;10.14;48.68;102249.63;4996466;28;20034;-68
2023/04/05 09:36:51;;;;;;;18.13;10.98;;;;;;;10.19;47.60;102243.84;4996111;28;20887;-68
2023/04/05 09:39:21;;;;;;;18.55;10.93;;;;;;;10.33;49.02;102252.31;4995999;28;20029;-68
2023/04/05 09:42:07;;;;;;;17.17;10.23;;;;;;;10.43;47.45;102249.34;4994069;28;20515;-68
2023/04/05 09:45:00;;;;;;;18.45;11.23;;;;;;;10.37;47.56;102248.16;4996312;28;20026;-68
2023/04/05 09:47:31;;;;;;;18.35;10.55;;;;;;;10.36;46.54;102241.19;4994646;28;20512;-68
2023/04/05 09:49:57;;;;;;;17.88;10.63;;;;;;;10.40;45.02;102243.13;4995916;28;20117;-68
2023/04/05 09:52:35;;;;;;;18.27;10.95;;;;;;;10.50;44.97;102236.59;4976770;28;20068;-68
2023/04/05 09:55:06;;;;;;;17.13;9.73;;;;;;;10.38;43.86;102235.19;4995632;28;20046;-68
2023/04/05 09:57:36;;;;;;;18.30;10.25;;;;;;;10.50;47.34;102232.31;4994702;28;20497;-68
2023/04/05 10:00:04;;;;;;;16.20;10.88;;;;;;;10.71;46.89;102232.38;4995370;28;20045;-68
2023/04/05 10:02:37;;;;;;;17.08;10.20;;;;;;;11.03;49.01;102235.53;4974332;28;20029;-68
2023/04/05 10:05:11;;;;;;;13.55;9.93;;;;;;;11.27;44.93;102227.88;4975836;28;20068;-68
2023/04/05 10:07:37;;;;;;;16.60;10.30;;;;;;;11.39;44.03;102221.41;4995938;28;20516;-68
2023/04/05 10:10:03;;;;;;;16.17;10.57;;;;;;;11.58;43.82;102228.31;4994379;28;20508;-68
2023/04/05 10:12:31;;;;;;;15.65;10.27;;;;;;;11.47;41.04;102214.78;4995324;28;20026;-68
2023/04/05 10:14:57;;;;;;;15.35;10.05;;;;;;;11.24;41.11;102222.53;4995960;28;20044;-68
2023/04/05 10:17:28;;;;;;;13.57;9.20;;;;;;;11.11;41.54;102212.41;4995567;28;20021;-68
2023/04/05 10:19:59;;;;;;;15.10;9.82;;;;;;;11.24;41.86;102208.59;4974091;28;20036;-68
2023/04/05 10:22:51;;;;;;;13.07;9.27;;;;;;;11.42;44.21;102209.38;4995947;28;20065;-68
2023/04/05 10:25:38;;;;;;;14.90;10.27;;;;;;;11.65;40.59;102210.34;4985569;28;20042;-68
2023/04/05 10:28:06;;;;;;;14.05;9.65;;;;;;;11.91;44.34;102202.66;4994012;28;20069;-68
2023/04/05 10:30:39;;;;;;;15.02;9.40;;;;;;;12.06;42.80;102201.53;4994699;28;20029;-68
2023/04/05 10:33:21;;;;;;;15.85;10.02;;;;;;;12.17;40.25;102200.22;4995511;28;20527;-68
2023/04/05 10:35:55;;;;;;;14.40;9.65;;;;;;;12.30;41.15;102202.47;4995952;28;20046;-68
2023/04/05 10:38:52;;;;;;;18.23;10.98;;;;;;;12.34;39.17;102200.91;4974718;28;20038;-68
2023/04/05 10:41:18;;;;;;;15.75;9.50;;;;;;;12.16;37.36;102195.84;4995201;28;20116;-68
2023/04/05 10:43:45;;;;;;;17.25;10.30;;;;;;;11.98;38.13;102199.50;4995000;28;20065;-68
2023/04/05 10:46:10;;;;;;;17.88;10.32;;;;;;;11.84;37.46;102190.19;4995055;28;20104;-68
2023/04/05 10:48:56;;;;;;;15.60;10.10;;;;;;;11.99;43.15;102195.16;4993572;28;20430;-68
2023/04/05 10:51:28;;;;;;;16.38;10.10;;;;;;;12.05;39.43;102194.50;4975977;28;20072;-68
2023/04/05 10:53:55;;;;;;;14.75;9.80;;;;;;;11.82;36.28;102197.09;4995437;28;20054;-68
2023/04/05 10:56:21;;;;;;;15.07;9.98;;;;;;;11.80;38.94;102196.13;4994785;28;20057;-68
2023/04/05 10:58:49;;;;;;;14.85;9.95;;;;;;;11.84;38.33;102190.19;4998671;28;20105;-68
2023/04/05 11:01:16;;;;;;;17.73;10.32;;;;;;;11.83;37.64;102183.19;4979505;28;20081;-68
2023/04/05 11:03:47;;;;;;;16.75;11.15;;;;;;;11.98;42.20;102178.59;4996786;28;20105;-68
2023/04/05 11:06:28;;;;;;;19.70;11.95;;;;;;;12.17;40.34;102174.97;4999135;28;21060;-68
2023/04/05 11:08:57;;;;;;;27.45;15.32;;;;;;;12.22;38.78;102169.94;4999651;28;20038;-68
2023/04/05 11:11:23;;;;;;;23.50;13.85;;;;;;;12.33;38.96;102165.13;4997528;28;20684;-68
2023/04/05 11:13:54;;;;;;;22.23;13.75;;;;;;;12.46;37.94;102162.13;4998007;28;20105;-68
2023/04/05 11:16:21;;;;;;;24.52;14.55;;;;;;;12.51;38.74;102165.81;4998149;28;20027;-68
2023/04/05 11:18:48;;;;;;;28.40;16.38;;;;;;;12.59;39.51;102168.69;4999491;28;20026;-68
2023/04/05 11:21:21;;;;;;;50.10;31.73;;;;;;;12.77;40.42;102162.34;4999070;28;20038;-68
2023/04/05 11:24:06;;;;;;;36.70;23.98;;;;;;;12.79;40.15;102165.91;4996876;28;20026;-68
2023/04/05 11:26:47;;;;;;;34.47;20.88;;;;;;;12.53;38.89;102165.88;4998447;28;20124;-68
2023/04/05 11:29:14;;;;;;;32.65;20.15;;;;;;;12.59;40.04;102158.25;4980172;28;20041;-68